createdAt,value
2023-02-15T00:01:11.552Z,22.10
2023-02-15T00:06:18.562Z,25.00
2023-02-15T00:08:41.541Z,24.53
2023-02-15T00:11:11.428Z,26.93
2023-02-15T00:13:34.576Z,27.30
2023-02-15T00:16:23.105Z,25.43
2023-02-15T00:18:45.688Z,24.53
2023-02-15T00:21:09.490Z,24.87
2023-02-15T00:23:37.934Z,24.83
2023-02-15T00:26:11.031Z,26.60
2023-02-15T00:28:34.369Z,26.93
2023-02-15T00:30:56.819Z,26.13
2023-02-15T00:33:19.494Z,25.83
2023-02-15T00:35:42.043Z,23.13
2023-02-15T00:38:04.798Z,24.37
2023-02-15T00:40:31.133Z,24.40
2023-02-15T00:42:56.654Z,25.43
2023-02-15T00:45:19.308Z,26.10
2023-02-15T00:47:44.604Z,24.90
2023-02-15T00:50:07.502Z,23.73
2023-02-15T00:52:29.926Z,25.70
2023-02-15T00:54:52.650Z,24.23
2023-02-15T00:57:22.903Z,25.50
2023-02-15T00:59:52.304Z,24.70
2023-02-15T01:02:15.760Z,22.40
2023-02-15T01:04:38.460Z,25.80
2023-02-15T01:07:02.919Z,25.40
2023-02-15T01:09:25.542Z,23.33
2023-02-15T01:11:48.364Z,24.43
2023-02-15T01:14:11.345Z,23.50
2023-02-15T01:25:56.706Z,24.57
2023-02-15T01:28:20.143Z,25.47
2023-02-15T01:30:43.291Z,23.43
2023-02-15T01:33:19.108Z,24.53
2023-02-15T01:35:42.500Z,22.30
2023-02-15T01:38:06.535Z,23.67
2023-02-15T01:40:35.303Z,23.03
2023-02-15T01:42:58.327Z,22.37
2023-02-15T01:45:32.061Z,23.73
2023-02-15T01:47:57.942Z,23.17
2023-02-15T01:50:43.267Z,22.20
2023-02-15T01:53:34.476Z,22.87
2023-02-15T01:56:10.650Z,23.23
2023-02-15T01:58:51.392Z,21.87
2023-02-15T02:01:16.978Z,24.97
2023-02-15T02:03:51.107Z,24.20
2023-02-15T02:06:13.999Z,25.83
2023-02-15T02:11:44.120Z,23.97
2023-02-15T02:14:09.147Z,21.57
2023-02-15T02:16:44.346Z,26.30
2023-02-15T02:22:39.456Z,22.77
2023-02-15T02:25:26.865Z,22.47
2023-02-15T02:28:01.672Z,22.23
2023-02-15T02:34:50.918Z,24.17
2023-02-15T02:37:30.430Z,24.63
2023-02-15T02:40:00.638Z,24.30
2023-02-15T02:42:37.088Z,26.30
2023-02-15T02:45:34.693Z,25.37
2023-02-15T02:48:05.591Z,26.87
2023-02-15T02:50:31.710Z,28.77
2023-02-15T02:55:52.612Z,26.13
2023-02-15T02:58:34.176Z,25.10
2023-02-15T03:01:02.648Z,26.53
2023-02-15T03:03:25.587Z,26.17
2023-02-15T03:06:02.524Z,27.00
2023-02-15T03:08:32.576Z,27.27
2023-02-15T03:13:42.871Z,31.43
2023-02-15T03:16:29.486Z,28.67
2023-02-15T03:18:59.083Z,28.53
2023-02-15T03:21:29.966Z,25.20
2023-02-15T03:24:01.424Z,26.07
2023-02-15T03:26:36.912Z,25.57
2023-02-15T03:29:00.946Z,25.20
2023-02-15T03:31:26.716Z,24.27
2023-02-15T03:34:01.261Z,27.90
2023-02-15T03:36:46.493Z,24.23
2023-02-15T03:39:27.835Z,23.33
2023-02-15T03:42:23.797Z,25.67
2023-02-15T03:45:11.237Z,26.53
2023-02-15T03:47:36.331Z,26.77
2023-02-15T03:50:41.564Z,25.60
2023-02-15T03:53:08.821Z,24.73
2023-02-15T03:55:40.871Z,26.23
2023-02-15T04:07:26.600Z,27.87
2023-02-15T04:10:08.458Z,28.83
2023-02-15T04:12:34.087Z,28.80
2023-02-15T04:21:51.490Z,29.97
2023-02-15T04:24:34.624Z,33.07
2023-02-15T04:34:21.999Z,31.13
2023-02-15T04:36:46.184Z,31.00
2023-02-15T04:39:45.353Z,34.43
2023-02-15T04:45:13.804Z,35.30
2023-02-15T04:47:36.821Z,31.63
2023-02-15T04:49:59.580Z,28.10
2023-02-15T04:52:40.859Z,29.03
2023-02-15T04:55:07.095Z,30.20
2023-02-15T04:57:29.737Z,27.93
2023-02-15T04:59:52.495Z,28.00
2023-02-15T05:02:21.756Z,32.60
2023-02-15T05:04:44.374Z,29.33
2023-02-15T05:07:06.934Z,29.63
2023-02-15T05:09:29.666Z,30.17
2023-02-15T05:11:52.886Z,29.13
2023-02-15T05:14:15.668Z,29.30
2023-02-15T05:16:48.483Z,30.03
2023-02-15T05:19:11.180Z,27.77
2023-02-15T05:24:48.201Z,30.13
2023-02-15T05:25:01.870Z,29.47
2023-02-15T05:27:46.082Z,29.63
2023-02-15T05:30:15.215Z,29.70
2023-02-15T05:32:45.490Z,32.37
2023-02-15T05:35:15.411Z,29.03
2023-02-15T05:37:40.460Z,26.90
2023-02-15T05:40:03.459Z,26.77
2023-02-15T05:42:25.994Z,28.60
2023-02-15T05:44:48.677Z,28.47
2023-02-15T05:47:11.291Z,27.47
2023-02-15T05:49:35.294Z,27.00
2023-02-15T05:51:58.066Z,28.67
2023-02-15T05:54:20.863Z,27.17
2023-02-15T05:56:43.364Z,26.23
2023-02-15T05:59:05.869Z,26.20
2023-02-15T06:01:28.665Z,26.73
2023-02-15T06:03:51.219Z,26.47
2023-02-15T06:06:14.207Z,27.17
2023-02-15T06:08:37.440Z,32.07
2023-02-15T06:10:59.884Z,31.17
2023-02-15T06:13:22.328Z,33.67
2023-02-15T06:15:44.723Z,34.17
2023-02-15T06:18:07.485Z,32.73
2023-02-15T06:20:30.148Z,31.90
2023-02-15T06:22:53.300Z,31.57
2023-02-15T06:25:19.739Z,32.43
2023-02-15T06:27:45.474Z,32.07
2023-02-15T06:30:16.296Z,34.00
2023-02-15T06:35:51.225Z,31.97
2023-02-15T06:38:39.642Z,30.80
2023-02-15T06:41:07.080Z,29.00
2023-02-15T06:43:41.712Z,28.73
2023-02-15T06:46:30.285Z,26.30
2023-02-15T06:49:17.773Z,25.40
2023-02-15T06:52:16.279Z,26.87
2023-02-15T07:00:45.052Z,25.47
2023-02-15T07:03:15.767Z,25.03
2023-02-15T07:08:16.446Z,24.70
2023-02-15T07:13:48.587Z,23.70
2023-02-15T07:16:54.959Z,23.90
2023-02-15T07:22:47.498Z,25.70
2023-02-15T07:31:23.845Z,23.93
2023-02-15T07:33:50.054Z,24.30
2023-02-15T07:36:34.220Z,24.70
2023-02-15T07:38:57.035Z,23.90
2023-02-15T07:41:19.635Z,23.80
2023-02-15T07:44:07.730Z,23.10
2023-02-15T07:55:37.188Z,25.23
2023-02-15T07:58:11.808Z,24.60
2023-02-15T08:04:35.920Z,24.17
2023-02-15T08:06:58.463Z,25.63
2023-02-15T08:09:23.937Z,24.83
2023-02-15T08:11:46.707Z,25.10
2023-02-15T08:14:09.426Z,25.63
2023-02-15T08:16:36.631Z,24.87
2023-02-15T08:19:00.099Z,23.03
2023-02-15T08:21:24.972Z,24.30
2023-02-15T08:23:47.648Z,25.17
2023-02-15T08:26:10.342Z,24.40
2023-02-15T08:28:33.017Z,25.37
2023-02-15T08:30:55.527Z,22.47
2023-02-15T08:33:26.986Z,23.60
2023-02-15T08:35:49.497Z,23.40
2023-02-15T08:38:12.068Z,24.23
2023-02-15T08:40:35.759Z,22.07
2023-02-15T08:43:00.128Z,22.27
2023-02-15T08:45:22.869Z,21.43
2023-02-15T08:47:45.522Z,23.57
2023-02-15T08:50:08.361Z,24.67
2023-02-15T08:52:33.956Z,26.20
2023-02-15T08:54:59.170Z,24.57
2023-02-15T08:57:23.963Z,24.53
2023-02-15T08:59:46.506Z,26.43
2023-02-15T09:02:15.259Z,24.80
2023-02-15T09:04:37.732Z,25.27
2023-02-15T09:07:00.218Z,24.97
2023-02-15T09:09:23.206Z,24.33
2023-02-15T09:11:46.745Z,24.63
2023-02-15T09:14:21.136Z,26.77
2023-02-15T09:16:47.356Z,28.00
2023-02-15T09:19:10.269Z,27.30
2023-02-15T09:21:33.047Z,26.60
2023-02-15T09:24:01.008Z,27.30
2023-02-15T09:26:24.883Z,28.30
2023-02-15T09:28:50.276Z,27.30
2023-02-15T09:31:17.255Z,28.80
2023-02-15T09:33:41.411Z,25.47
2023-02-15T09:36:04.763Z,29.23
2023-02-15T09:38:27.192Z,27.40
2023-02-15T09:40:55.636Z,26.90
2023-02-15T09:43:32.249Z,26.10
2023-02-15T09:46:14.948Z,26.93
2023-02-15T09:48:41.592Z,26.63
2023-02-15T09:51:24.526Z,26.13
2023-02-15T09:54:12.555Z,28.03
2023-02-15T09:56:38.616Z,28.03
2023-02-15T09:59:00.984Z,28.97
2023-02-15T10:01:35.905Z,28.17
2023-02-15T10:04:29.094Z,27.80
2023-02-15T10:07:02.997Z,26.83
2023-02-15T10:09:40.707Z,29.00
2023-02-15T10:12:18.500Z,27.80
2023-02-15T10:14:51.068Z,28.07
2023-02-15T10:17:33.087Z,26.27
2023-02-15T10:20:01.225Z,25.43
2023-02-15T10:22:23.677Z,25.03
2023-02-15T10:25:10.277Z,24.87
2023-02-15T10:27:41.816Z,23.03
2023-02-15T10:30:06.257Z,23.40
2023-02-15T10:32:30.418Z,22.60
2023-02-15T10:34:58.197Z,22.50
2023-02-15T10:37:27.672Z,21.50
2023-02-15T10:39:50.123Z,22.10
2023-02-15T10:42:37.041Z,23.73
2023-02-15T10:45:19.133Z,22.37
2023-02-15T10:47:41.674Z,23.20
2023-02-15T10:50:17.893Z,22.13
2023-02-15T10:52:52.382Z,21.10
2023-02-15T10:55:20.648Z,23.17
2023-02-15T10:57:53.465Z,23.03
2023-02-15T11:00:30.040Z,22.83
2023-02-15T11:02:58.192Z,23.60
2023-02-15T11:05:25.119Z,22.30
2023-02-15T11:07:49.498Z,21.60
2023-02-15T11:10:17.499Z,24.23
2023-02-15T11:12:42.563Z,24.87
2023-02-15T11:15:12.041Z,23.27
2023-02-15T11:17:58.439Z,23.47
2023-02-15T11:20:26.123Z,24.03
2023-02-15T11:22:50.189Z,23.33
2023-02-15T11:25:31.881Z,24.57
2023-02-15T11:27:54.800Z,23.30
2023-02-15T11:30:24.556Z,24.50
2023-02-15T11:32:48.604Z,22.40
2023-02-15T11:35:14.120Z,22.37
2023-02-15T11:37:39.638Z,23.23
2023-02-15T11:40:06.963Z,24.00
2023-02-15T11:42:31.245Z,24.43
2023-02-15T11:45:01.394Z,22.60
2023-02-15T11:47:24.540Z,22.33
2023-02-15T11:49:47.558Z,23.17
2023-02-15T11:52:13.925Z,22.77
2023-02-15T11:54:37.535Z,22.17
2023-02-15T11:57:16.206Z,21.83
2023-02-15T11:59:39.606Z,21.90
2023-02-15T12:02:02.349Z,21.77
2023-02-15T12:04:31.205Z,22.10
2023-02-15T12:07:02.377Z,21.43
2023-02-15T12:09:31.384Z,20.27
2023-02-15T12:11:54.110Z,21.27
2023-02-15T12:14:16.952Z,20.30
2023-02-15T12:16:44.377Z,20.10
2023-02-15T12:19:09.669Z,20.47
2023-02-15T12:21:33.671Z,19.90
2023-02-15T12:24:12.366Z,20.50
2023-02-15T12:26:36.879Z,22.30
2023-02-15T12:29:05.113Z,19.90
2023-02-15T12:31:30.993Z,18.83
2023-02-15T12:33:55.169Z,19.43
2023-02-15T12:36:20.408Z,19.17
2023-02-15T12:38:42.854Z,20.03
2023-02-15T12:41:25.782Z,18.90
2023-02-15T12:43:53.985Z,18.63
2023-02-15T12:46:17.745Z,18.40
2023-02-15T12:48:41.003Z,18.63
2023-02-15T12:51:09.540Z,18.20
2023-02-15T12:53:37.284Z,17.60
2023-02-15T12:56:03.273Z,18.43
2023-02-15T12:58:26.973Z,16.73
2023-02-15T13:00:49.688Z,17.30
2023-02-15T13:03:25.546Z,16.80
2023-02-15T13:05:50.030Z,18.30
2023-02-15T13:08:20.148Z,16.57
2023-02-15T13:10:44.524Z,17.50
2023-02-15T13:13:22.983Z,16.93
2023-02-15T13:15:48.676Z,16.77
2023-02-15T13:18:14.705Z,17.83
2023-02-15T13:20:43.946Z,17.70
2023-02-15T13:23:36.432Z,17.30
2023-02-15T13:26:00.586Z,17.67
2023-02-15T13:28:26.440Z,19.97
2023-02-15T13:30:49.836Z,17.53
2023-02-15T13:33:27.151Z,17.20
2023-02-15T13:35:54.630Z,16.93
2023-02-15T13:38:37.324Z,17.90
2023-02-15T13:41:06.128Z,17.30
2023-02-15T13:43:28.574Z,18.23
2023-02-15T13:46:10.751Z,18.07
2023-02-15T13:49:10.658Z,17.33
2023-02-15T13:51:47.796Z,17.27
2023-02-15T13:54:10.814Z,18.17
2023-02-15T13:56:33.354Z,16.70
2023-02-15T14:01:50.284Z,17.87
2023-02-15T14:04:23.235Z,18.10
2023-02-15T14:06:58.441Z,17.50
2023-02-15T14:09:30.560Z,15.40
2023-02-15T14:12:16.265Z,17.07
2023-02-15T14:15:20.080Z,16.50
2023-02-15T14:17:54.978Z,15.83
2023-02-15T14:20:25.767Z,16.23
2023-02-15T14:22:58.282Z,15.13
2023-02-15T14:35:22.037Z,16.47
2023-02-15T14:37:50.095Z,15.87
2023-02-15T14:40:40.520Z,16.33
2023-02-15T14:43:12.155Z,16.77
2023-02-15T14:48:21.302Z,17.57
2023-02-15T14:50:48.149Z,16.70
2023-02-15T14:53:29.924Z,17.23
2023-02-15T14:56:46.510Z,16.13
2023-02-15T14:59:14.500Z,16.10
2023-02-15T15:01:40.704Z,16.47
2023-02-15T15:04:13.192Z,17.43
2023-02-15T15:06:37.393Z,16.97
2023-02-15T15:09:15.456Z,16.80
2023-02-15T15:11:45.569Z,16.97
2023-02-15T15:14:32.648Z,17.93
2023-02-15T15:16:55.266Z,17.63
2023-02-15T15:19:50.877Z,17.57
2023-02-15T15:22:24.986Z,17.60
2023-02-15T15:24:54.301Z,16.47
2023-02-15T15:27:36.101Z,16.47
2023-02-15T15:29:58.569Z,17.30
2023-02-15T15:32:27.838Z,17.40
2023-02-15T15:35:07.346Z,18.37
2023-02-15T15:37:48.593Z,17.10
2023-02-15T15:40:24.311Z,56.80
2023-02-15T15:43:14.701Z,22.13
2023-02-15T15:45:46.963Z,17.70
2023-02-15T15:48:21.853Z,18.80
2023-02-15T15:50:44.434Z,17.50
2023-02-15T15:53:14.525Z,18.13
2023-02-15T15:55:37.702Z,17.17
2023-02-15T15:58:05.370Z,18.60
2023-02-15T16:00:32.044Z,18.43
2023-02-15T16:02:57.146Z,19.63
2023-02-15T16:05:20.269Z,19.73
2023-02-15T16:07:43.575Z,18.70
2023-02-15T16:10:07.881Z,18.90
2023-02-15T16:12:33.302Z,17.67
2023-02-15T16:14:57.305Z,19.37
2023-02-15T16:17:22.759Z,18.77
2023-02-15T16:19:45.617Z,19.13
2023-02-15T16:22:12.732Z,18.07
2023-02-15T16:24:39.497Z,18.60
2023-02-15T16:27:01.782Z,19.97
2023-02-15T16:29:32.031Z,19.13
2023-02-15T16:32:01.693Z,19.87
2023-02-15T16:34:33.714Z,20.43
2023-02-15T16:37:14.931Z,18.40
2023-02-15T16:39:42.152Z,19.10
2023-02-15T16:42:05.317Z,19.10
2023-02-15T16:44:31.212Z,18.40
2023-02-15T16:46:55.103Z,17.53
2023-02-15T16:49:20.016Z,17.33
2023-02-15T16:51:43.498Z,17.83
2023-02-15T16:54:08.914Z,17.97
2023-02-15T16:56:33.169Z,19.00
2023-02-15T16:58:56.529Z,20.33
2023-02-15T17:01:21.971Z,17.30
2023-02-15T17:03:44.724Z,18.60
2023-02-15T17:06:18.807Z,18.77
2023-02-15T17:08:45.928Z,17.47
2023-02-15T17:11:22.151Z,18.47
2023-02-15T17:14:04.129Z,18.00
2023-02-15T17:16:30.623Z,18.47
2023-02-15T17:18:56.825Z,18.07
2023-02-15T17:21:20.572Z,18.73
2023-02-15T17:23:48.057Z,19.53
2023-02-15T17:26:21.408Z,19.37
2023-02-15T17:28:51.903Z,20.53
2023-02-15T17:31:18.710Z,19.93
2023-02-15T17:33:44.453Z,21.60
2023-02-15T17:36:09.879Z,22.27
2023-02-15T17:38:32.423Z,21.50
2023-02-15T17:40:54.871Z,20.63
2023-02-15T17:43:19.646Z,21.20
2023-02-15T17:45:45.357Z,20.07
2023-02-15T17:48:16.593Z,20.40
2023-02-15T17:50:38.954Z,19.23
2023-02-15T17:53:02.132Z,19.20
2023-02-15T17:55:40.424Z,19.60
2023-02-15T17:58:03.727Z,20.03
2023-02-15T18:00:46.993Z,19.67
2023-02-15T18:03:32.388Z,19.73
2023-02-15T18:06:13.340Z,19.27
2023-02-15T18:08:54.245Z,20.40
2023-02-15T18:11:46.738Z,21.43
2023-02-15T18:14:10.705Z,18.73
2023-02-15T18:16:43.565Z,20.37
2023-02-15T18:19:06.542Z,20.13
2023-02-15T18:21:29.094Z,20.53
2023-02-15T18:23:51.675Z,20.70
2023-02-15T18:26:18.389Z,22.83
2023-02-15T18:28:40.582Z,22.63
2023-02-15T18:31:03.059Z,23.87
2023-02-15T18:33:42.848Z,24.83
2023-02-15T18:36:06.143Z,21.37
2023-02-15T18:38:28.686Z,23.80
2023-02-15T18:40:51.691Z,23.57
2023-02-15T18:43:14.205Z,24.10
2023-02-15T18:45:37.334Z,24.30
2023-02-15T18:48:00.225Z,24.00
2023-02-15T18:50:23.270Z,24.03
2023-02-15T18:52:51.487Z,24.37
2023-02-15T18:55:16.876Z,22.63
2023-02-15T18:57:39.360Z,22.53
2023-02-15T19:00:01.664Z,23.07
2023-02-15T19:02:24.631Z,24.53
2023-02-15T19:04:47.551Z,23.90
2023-02-15T19:07:23.061Z,29.10
2023-02-15T19:09:48.130Z,26.30
2023-02-15T19:12:12.657Z,27.67
2023-02-15T19:14:35.403Z,28.67
2023-02-15T19:16:58.938Z,24.17
2023-02-15T19:19:21.506Z,25.23
2023-02-15T19:21:43.803Z,24.27
2023-02-15T19:24:08.887Z,22.87
2023-02-15T19:26:44.972Z,23.13
2023-02-15T19:29:08.465Z,22.93
2023-02-15T19:31:33.331Z,23.63
2023-02-15T19:33:57.027Z,23.97
2023-02-15T19:36:21.437Z,24.70
2023-02-15T19:38:44.270Z,24.80
2023-02-15T19:41:08.325Z,24.53
2023-02-15T19:43:30.712Z,26.43
2023-02-15T19:45:53.402Z,27.00
2023-02-15T19:48:15.827Z,28.90
2023-02-15T19:50:38.310Z,25.10
2023-02-15T19:53:00.823Z,24.57
2023-02-15T19:55:27.145Z,22.87
2023-02-15T19:57:50.492Z,24.00
2023-02-15T20:00:23.313Z,25.27
2023-02-15T20:02:46.208Z,23.97
2023-02-15T20:05:09.065Z,25.30
2023-02-15T20:07:31.502Z,24.10
2023-02-15T20:09:53.801Z,24.17
2023-02-15T20:12:26.436Z,23.03
2023-02-15T20:14:48.620Z,27.80
2023-02-15T20:17:10.953Z,25.73
2023-02-15T20:19:33.397Z,27.93
2023-02-15T20:21:56.042Z,24.63
2023-02-15T20:24:19.705Z,24.33
2023-02-15T20:26:42.075Z,26.07
2023-02-15T20:29:04.444Z,27.10
2023-02-15T20:31:27.216Z,25.53
2023-02-15T20:33:49.807Z,25.40
2023-02-15T20:36:16.374Z,24.70
2023-02-15T20:38:38.616Z,24.27
2023-02-15T20:41:20.130Z,23.07
2023-02-15T20:43:42.346Z,23.50
2023-02-15T20:46:05.192Z,23.23
2023-02-15T20:48:28.048Z,23.00
2023-02-15T20:50:50.451Z,22.60
2023-02-15T20:53:12.734Z,23.03
2023-02-15T20:55:35.140Z,23.40
2023-02-15T20:57:58.357Z,23.07
2023-02-15T21:00:28.630Z,23.07
2023-02-15T21:02:52.654Z,24.03
2023-02-15T21:05:15.887Z,22.30
2023-02-15T21:07:38.127Z,22.43
2023-02-15T21:10:00.674Z,22.90
2023-02-15T21:12:23.502Z,24.93
2023-02-15T21:14:46.699Z,23.20
2023-02-15T21:17:12.286Z,25.83
2023-02-15T21:19:41.560Z,25.73
2023-02-15T21:22:03.987Z,24.03
2023-02-15T21:24:29.898Z,25.27
2023-02-15T21:26:54.033Z,23.20
2023-02-15T21:29:19.138Z,24.43
2023-02-15T21:31:41.654Z,22.20
2023-02-15T21:34:03.986Z,23.03
2023-02-15T21:36:27.022Z,20.70
2023-02-15T21:38:49.611Z,21.97
2023-02-15T21:41:37.278Z,22.03
2023-02-15T21:44:18.354Z,22.20
2023-02-15T21:46:44.153Z,20.37
2023-02-15T21:49:07.510Z,21.53
2023-02-15T21:51:58.913Z,22.17
2023-02-15T21:54:21.888Z,21.70
2023-02-15T21:57:04.289Z,21.80
2023-02-15T21:59:30.732Z,19.97
2023-02-15T22:02:08.526Z,20.17
2023-02-15T22:04:31.340Z,22.30
2023-02-15T22:06:54.212Z,23.80
2023-02-15T22:09:18.814Z,23.20
2023-02-15T22:11:41.257Z,22.27
2023-02-15T22:14:04.662Z,21.90
2023-02-15T22:16:51.726Z,22.07
2023-02-15T22:19:14.235Z,25.93
2023-02-15T22:21:36.798Z,59.43
2023-02-15T22:23:59.309Z,57.00
2023-02-15T22:26:24.963Z,34.63
2023-02-15T22:28:47.313Z,26.50
2023-02-15T22:31:19.714Z,25.93
2023-02-15T22:34:35.953Z,25.83
2023-02-15T22:37:00.918Z,23.13
2023-02-15T22:39:24.919Z,23.47
2023-02-15T22:41:47.656Z,23.10
2023-02-15T22:44:35.631Z,23.73
2023-02-15T22:50:29.630Z,26.17
2023-02-15T22:52:52.357Z,25.03
2023-02-15T22:59:05.276Z,21.80
2023-02-15T23:04:27.723Z,25.23
2023-02-15T23:06:50.608Z,27.67
2023-02-15T23:09:13.959Z,26.77
2023-02-15T23:11:50.307Z,22.87
2023-02-15T23:14:31.814Z,22.40
2023-02-15T23:16:54.593Z,23.23
2023-02-15T23:29:40.730Z,23.30
2023-02-15T23:32:03.842Z,24.80
2023-02-15T23:34:45.987Z,24.67
2023-02-15T23:37:13.535Z,20.97
2023-02-15T23:46:27.122Z,23.57
2023-02-15T23:55:46.038Z,21.67
2023-02-15T23:58:39.521Z,23.47
